シュトゥットガルト の空港の天気 - METARとTAF

シュトゥットガルト空港 ( EDDS / STR ) - ドイツ シュトゥットガルト
飛行場実況気象(Metar)
観測時間07/15 13:20 CEST (07/15 11:20 UTC)
風向・風速南西 2m/s
視程10km以上
天気現象弱い雨
少しの雲 雲底高度 210m
全天の4割程度の雲 雲底高度 340m
気温17℃
湿度83%
気圧1015hPa
METAREDDS 151120Z 23003KT 160V300 9999 -RA FEW007 SCT011 17/14 Q1015 TEMPO RA BKN013
過去の天気等 Google飛行場航空写真 Wunderground天気予報

過去48時間のMETAR

飛行場予報(TAF)
発表時間: 7/15 13:00 CEST (7/15 11:00 UTC)
予報対象時間: 15日14時 CEST ~ 16日14時 CEST
風向・風速西 2m/s
視程10km以上
全天の4割程度の雲 雲底高度 460m
全天の8割程度の雲 雲底高度 910m
15日14時 CEST ~ 15日19時 CEST に 確率 40% で一時的に
天気現象
全天の8割程度の雲 雲底高度 400m
TAF EDDS 151100Z 1512/1612 26004KT 9999 SCT015 BKN030
PROB40 TEMPO 1512/1517 RA BKN013